sensor_id;sensor_type;location;lat;lon;timestamp;temperature;humidity
72646;DHT22;60687;53.876;10.674;2023-04-03T00:01:32;2.70;93.00
72646;DHT22;60687;53.876;10.674;2023-04-03T00:11:37;2.60;91.00
72646;DHT22;60687;53.876;10.674;2023-04-03T00:21:40;2.50;92.40
72646;DHT22;60687;53.876;10.674;2023-04-03T00:31:44;2.50;92.90
72646;DHT22;60687;53.876;10.674;2023-04-03T00:41:46;2.30;93.10
72646;DHT22;60687;53.876;10.674;2023-04-03T00:51:50;2.20;93.50
72646;DHT22;60687;53.876;10.674;2023-04-03T01:01:54;2.10;93.60
72646;DHT22;60687;53.876;10.674;2023-04-03T01:22:30;2.00;94.30
72646;DHT22;60687;53.876;10.674;2023-04-03T01:32:40;1.80;95.90
72646;DHT22;60687;53.876;10.674;2023-04-03T01:42:42;1.70;96.70
72646;DHT22;60687;53.876;10.674;2023-04-03T01:52:46;1.70;96.00
72646;DHT22;60687;53.876;10.674;2023-04-03T02:02:48;1.60;96.30
72646;DHT22;60687;53.876;10.674;2023-04-03T02:12:52;1.50;93.10
72646;DHT22;60687;53.876;10.674;2023-04-03T02:22:55;1.50;94.80
72646;DHT22;60687;53.876;10.674;2023-04-03T02:33:01;1.40;94.40
72646;DHT22;60687;53.876;10.674;2023-04-03T02:43:04;1.40;94.50
72646;DHT22;60687;53.876;10.674;2023-04-03T02:53:08;1.30;96.80
72646;DHT22;60687;53.876;10.674;2023-04-03T03:03:10;1.20;95.70
72646;DHT22;60687;53.876;10.674;2023-04-03T03:13:15;1.20;96.00
72646;DHT22;60687;53.876;10.674;2023-04-03T03:23:18;1.20;96.70
72646;DHT22;60687;53.876;10.674;2023-04-03T03:33:22;1.10;97.80
72646;DHT22;60687;53.876;10.674;2023-04-03T03:43:24;1.00;98.60
72646;DHT22;60687;53.876;10.674;2023-04-03T03:53:30;1.00;99.00
72646;DHT22;60687;53.876;10.674;2023-04-03T04:03:37;0.90;99.40
72646;DHT22;60687;53.876;10.674;2023-04-03T04:13:43;0.90;99.70
72646;DHT22;60687;53.876;10.674;2023-04-03T04:23:48;0.80;99.20
72646;DHT22;60687;53.876;10.674;2023-04-03T04:33:53;0.80;99.90
72646;DHT22;60687;53.876;10.674;2023-04-03T04:43:56;0.80;99.10
72646;DHT22;60687;53.876;10.674;2023-04-03T04:54:01;0.80;99.00
72646;DHT22;60687;53.876;10.674;2023-04-03T05:04:06;0.80;98.90
72646;DHT22;60687;53.876;10.674;2023-04-03T05:14:11;0.80;98.50
72646;DHT22;60687;53.876;10.674;2023-04-03T05:24:14;0.80;99.80
72646;DHT22;60687;53.876;10.674;2023-04-03T05:34:19;0.80;99.80
72646;DHT22;60687;53.876;10.674;2023-04-03T05:44:24;0.90;99.70
72646;DHT22;60687;53.876;10.674;2023-04-03T05:54:30;1.00;98.10
72646;DHT22;60687;53.876;10.674;2023-04-03T06:04:45;1.10;99.90
72646;DHT22;60687;53.876;10.674;2023-04-03T06:14:50;1.30;99.90
72646;DHT22;60687;53.876;10.674;2023-04-03T06:24:52;1.50;99.90
72646;DHT22;60687;53.876;10.674;2023-04-03T06:34:57;1.80;99.90
72646;DHT22;60687;53.876;10.674;2023-04-03T06:44:59;2.10;99.90
72646;DHT22;60687;53.876;10.674;2023-04-03T06:55:04;2.60;99.90
72646;DHT22;60687;53.876;10.674;2023-04-03T07:05:07;3.00;97.70
72646;DHT22;60687;53.876;10.674;2023-04-03T07:15:11;3.40;95.50
72646;DHT22;60687;53.876;10.674;2023-04-03T07:25:15;3.80;91.70
72646;DHT22;60687;53.876;10.674;2023-04-03T07:35:19;4.30;86.00
72646;DHT22;60687;53.876;10.674;2023-04-03T07:45:25;4.60;82.90
72646;DHT22;60687;53.876;10.674;2023-04-03T07:55:29;5.00;76.60
72646;DHT22;60687;53.876;10.674;2023-04-03T08:05:31;5.30;75.80
72646;DHT22;60687;53.876;10.674;2023-04-03T08:15:39;5.70;75.30
72646;DHT22;60687;53.876;10.674;2023-04-03T08:25:42;6.00;73.90
72646;DHT22;60687;53.876;10.674;2023-04-03T08:35:46;6.20;68.00
72646;DHT22;60687;53.876;10.674;2023-04-03T08:45:51;6.30;68.20
72646;DHT22;60687;53.876;10.674;2023-04-03T08:55:57;6.30;67.00
72646;DHT22;60687;53.876;10.674;2023-04-03T09:06:04;6.70;66.60
72646;DHT22;60687;53.876;10.674;2023-04-03T09:16:20;6.80;64.20
72646;DHT22;60687;53.876;10.674;2023-04-03T09:26:28;6.70;62.90
72646;DHT22;60687;53.876;10.674;2023-04-03T09:36:43;6.50;59.70
72646;DHT22;60687;53.876;10.674;2023-04-03T09:46:46;6.90;59.30
72646;DHT22;60687;53.876;10.674;2023-04-03T09:56:53;6.90;59.50
72646;DHT22;60687;53.876;10.674;2023-04-03T10:06:58;6.80;57.70
72646;DHT22;60687;53.876;10.674;2023-04-03T10:17:16;6.70;58.30
72646;DHT22;60687;53.876;10.674;2023-04-03T10:27:30;7.20;59.60
72646;DHT22;60687;53.876;10.674;2023-04-03T10:37:49;7.60;57.90
72646;DHT22;60687;53.876;10.674;2023-04-03T10:48:02;8.00;56.30
72646;DHT22;60687;53.876;10.674;2023-04-03T11:08:23;8.00;55.10
72646;DHT22;60687;53.876;10.674;2023-04-03T11:18:34;7.90;55.00
72646;DHT22;60687;53.876;10.674;2023-04-03T11:28:38;7.80;55.00
72646;DHT22;60687;53.876;10.674;2023-04-03T11:38:44;7.60;55.30
72646;DHT22;60687;53.876;10.674;2023-04-03T11:48:50;7.60;53.50
72646;DHT22;60687;53.876;10.674;2023-04-03T11:59:23;7.50;49.40
72646;DHT22;60687;53.876;10.674;2023-04-03T12:09:29;7.20;52.00
72646;DHT22;60687;53.876;10.674;2023-04-03T12:19:36;7.00;52.70
72646;DHT22;60687;53.876;10.674;2023-04-03T12:29:47;6.90;52.80
72646;DHT22;60687;53.876;10.674;2023-04-03T12:39:59;6.80;53.20
72646;DHT22;60687;53.876;10.674;2023-04-03T12:50:17;6.70;54.30
72646;DHT22;60687;53.876;10.674;2023-04-03T13:00:30;6.60;54.20
72646;DHT22;60687;53.876;10.674;2023-04-03T13:10:45;6.60;56.40
72646;DHT22;60687;53.876;10.674;2023-04-03T13:20:52;6.60;56.00
72646;DHT22;60687;53.876;10.674;2023-04-03T13:31:06;6.50;56.50
72646;DHT22;60687;53.876;10.674;2023-04-03T13:41:24;6.50;57.30
72646;DHT22;60687;53.876;10.674;2023-04-03T13:51:29;6.50;57.00
72646;DHT22;60687;53.876;10.674;2023-04-03T14:01:42;6.40;57.00
72646;DHT22;60687;53.876;10.674;2023-04-03T14:11:46;6.30;57.50
72646;DHT22;60687;53.876;10.674;2023-04-03T14:21:51;6.30;58.50
72646;DHT22;60687;53.876;10.674;2023-04-03T14:31:54;6.30;58.50
72646;DHT22;60687;53.876;10.674;2023-04-03T14:41:58;6.20;58.40
72646;DHT22;60687;53.876;10.674;2023-04-03T14:52:01;6.10;58.00
72646;DHT22;60687;53.876;10.674;2023-04-03T15:02:22;6.00;58.40
72646;DHT22;60687;53.876;10.674;2023-04-03T15:12:26;6.00;59.00
72646;DHT22;60687;53.876;10.674;2023-04-03T15:22:30;5.90;57.30
72646;DHT22;60687;53.876;10.674;2023-04-03T15:32:33;5.80;56.30
72646;DHT22;60687;53.876;10.674;2023-04-03T15:42:38;5.70;57.30
72646;DHT22;60687;53.876;10.674;2023-04-03T15:52:40;5.70;59.30
72646;DHT22;60687;53.876;10.674;2023-04-03T16:02:45;5.70;59.30
72646;DHT22;60687;53.876;10.674;2023-04-03T16:12:48;5.70;59.70
72646;DHT22;60687;53.876;10.674;2023-04-03T16:22:53;5.60;59.30
72646;DHT22;60687;53.876;10.674;2023-04-03T16:32:56;5.50;60.20
72646;DHT22;60687;53.876;10.674;2023-04-03T16:43:02;5.40;60.00
72646;DHT22;60687;53.876;10.674;2023-04-03T16:53:05;5.30;60.50
72646;DHT22;60687;53.876;10.674;2023-04-03T17:03:11;5.30;60.70
72646;DHT22;60687;53.876;10.674;2023-04-03T17:13:14;5.20;61.00
72646;DHT22;60687;53.876;10.674;2023-04-03T17:23:18;5.10;61.50
72646;DHT22;60687;53.876;10.674;2023-04-03T17:33:20;5.00;61.40
72646;DHT22;60687;53.876;10.674;2023-04-03T17:43:24;4.90;61.90
72646;DHT22;60687;53.876;10.674;2023-04-03T17:53:27;4.70;61.40
72646;DHT22;60687;53.876;10.674;2023-04-03T18:03:33;4.70;61.30
72646;DHT22;60687;53.876;10.674;2023-04-03T18:13:37;4.50;59.10
72646;DHT22;60687;53.876;10.674;2023-04-03T18:23:43;4.30;59.60
72646;DHT22;60687;53.876;10.674;2023-04-03T18:33:48;4.20;59.00
72646;DHT22;60687;53.876;10.674;2023-04-03T18:43:56;4.10;59.50
72646;DHT22;60687;53.876;10.674;2023-04-03T18:54:01;4.00;60.20
72646;DHT22;60687;53.876;10.674;2023-04-03T19:04:07;3.90;60.70
72646;DHT22;60687;53.876;10.674;2023-04-03T19:14:09;3.90;61.00
72646;DHT22;60687;53.876;10.674;2023-04-03T19:24:13;3.80;61.30
72646;DHT22;60687;53.876;10.674;2023-04-03T19:34:17;3.70;61.20
72646;DHT22;60687;53.876;10.674;2023-04-03T19:44:21;3.60;61.00
72646;DHT22;60687;53.876;10.674;2023-04-03T19:54:23;3.60;62.00
72646;DHT22;60687;53.876;10.674;2023-04-03T20:04:27;3.50;62.60
72646;DHT22;60687;53.876;10.674;2023-04-03T20:14:30;3.40;64.00
72646;DHT22;60687;53.876;10.674;2023-04-03T20:24:34;3.30;64.30
72646;DHT22;60687;53.876;10.674;2023-04-03T20:34:37;3.20;65.30
72646;DHT22;60687;53.876;10.674;2023-04-03T20:44:41;3.10;66.30
72646;DHT22;60687;53.876;10.674;2023-04-03T20:54:46;3.00;66.50
72646;DHT22;60687;53.876;10.674;2023-04-03T21:04:52;2.90;66.90
72646;DHT22;60687;53.876;10.674;2023-04-03T21:25:36;2.70;67.90
72646;DHT22;60687;53.876;10.674;2023-04-03T21:35:39;2.60;67.10
72646;DHT22;60687;53.876;10.674;2023-04-03T21:45:43;2.50;68.00
72646;DHT22;60687;53.876;10.674;2023-04-03T21:55:52;2.40;67.40
72646;DHT22;60687;53.876;10.674;2023-04-03T22:05:59;2.40;68.40
72646;DHT22;60687;53.876;10.674;2023-04-03T22:16:01;2.30;69.20
72646;DHT22;60687;53.876;10.674;2023-04-03T22:26:08;2.30;68.90
72646;DHT22;60687;53.876;10.674;2023-04-03T22:36:14;2.20;69.80
72646;DHT22;60687;53.876;10.674;2023-04-03T22:46:18;2.20;72.20
72646;DHT22;60687;53.876;10.674;2023-04-03T22:56:21;2.00;73.30
72646;DHT22;60687;53.876;10.674;2023-04-03T23:06:25;1.90;72.90
72646;DHT22;60687;53.876;10.674;2023-04-03T23:16:28;1.90;72.90
72646;DHT22;60687;53.876;10.674;2023-04-03T23:26:31;1.80;76.20
72646;DHT22;60687;53.876;10.674;2023-04-03T23:36:34;1.70;77.50
72646;DHT22;60687;53.876;10.674;2023-04-03T23:46:38;1.60;78.00
72646;DHT22;60687;53.876;10.674;2023-04-03T23:56:40;1.50;75.80
